Main page
METAR-TAF:

METAR-TAF

Airports :

Donegal Airport

Donegal, Ireland

latitude: 55-02-39N, longitude: 8-20-28W, elevation: 9 m

Current weather observation

The report was made 2 hours and 19 minutes ago, at 20:00 UTC
Wind 17 kt from the West/Southwest
Temperature 12°C
Humidity 71%
Pressure 1012 hPa
Visibility 10 km or more
Scattered clouds at a height of 2100 ft

METAR: EIDL 252000Z 25017KT 9999 SCT021 12/07 Q1012

Time: 23:19 (22:19 UTC)

Forecast

The report was made 8 hours and 19 minutes ago, at 14:00 UTC
Forecast valid from 25 at 15 UTC to 25 at 24 UTC
Wind 16 kt from the West
Visibility 10 km or more
Few clouds at a height of 1700 ft
Broken clouds at a height of 3500 ft
Temporary
from 25 at 15 UTC to 25 at 20 UTC
Wind 18 kt from the West with gusts up to 30 kt
Probability 40% :
Temporary
from 25 at 20 UTC to 25 at 24 UTC
Wind 16 kt from the West with gusts up to 26 kt

TAF: EIDL 251400Z 2515/2524 26016KT 9999 FEW017 BKN035 TEMPO 2515/2520 27018G30KT PROB40 TEMPO 2520/2524 27016G26KT

Weather observations and forecasts of more than 4000 airports (METAR and TAF reports).

The available stations are represented by yellow and red dots on the map.

Hover mouse over dot to see the name of the station.

Then click to see weather observations and forecasts.

To change the map : click on the green buttons with a black cross to zoom in, on the green button with a dash to zoom out, or on the green arrows for adjacent maps.


METAR-TAF: